Time;durP1;ratioP1;P1;durP2;ratioP2;P2;SDS_P1;SDS_P2;PMS_P1;PMS_P2;Temp;Humidity;BMP_temperature;BMP_pressure;BME280_temperature;BME280_humidity;BME280_pressure;Samples;Min_cycle;Max_cycle;Signal;HPM_P1;HPM_P2
2022/09/23 00:02:13;;;;;;;;;;;17.40;88.30;;;;;;5108763;28;19911;-41
2022/09/23 00:04:41;;;;;;;;;;;17.50;88.90;;;;;;5111265;28;19946;-42
2022/09/23 00:07:06;;;;;;;;;;;17.40;88.20;;;;;;5108830;28;19981;-41
2022/09/23 00:09:32;;;;;;;;;;;17.40;88.30;;;;;;5114760;28;20346;-41
2022/09/23 00:11:58;;;;;;;;;;;17.50;88.40;;;;;;5112702;28;19919;-41
2022/09/23 00:14:24;;;;;;;;;;;17.50;88.20;;;;;;5114497;28;20358;-41
2022/09/23 00:16:49;;;;;;;;;;;17.50;88.30;;;;;;5112125;28;20007;-41
2022/09/23 00:19:15;;;;;;;;;;;17.40;88.30;;;;;;5112061;28;19916;-41
2022/09/23 00:21:41;;;;;;;;;;;17.40;88.40;;;;;;5114823;28;19915;-42
2022/09/23 00:24:07;;;;;;;;;;;17.40;88.40;;;;;;5110055;28;19999;-43
2022/09/23 00:26:32;;;;;;;;;;;17.50;88.40;;;;;;5112502;28;20397;-41
2022/09/23 00:28:58;;;;;;;;;;;17.40;88.40;;;;;;5112258;28;19919;-41
2022/09/23 00:31:24;;;;;;;;;;;17.40;88.20;;;;;;5114534;28;19908;-41
2022/09/23 00:33:54;;;;;;;;;;;17.40;88.20;;;;;;5109044;28;19912;-41
2022/09/23 00:36:19;;;;;;;;;;;17.40;88.30;;;;;;5107039;28;19971;-41
2022/09/23 00:38:45;;;;;;;;;;;17.40;88.40;;;;;;5114589;28;20501;-41
2022/09/23 00:41:11;;;;;;;;;;;17.40;88.20;;;;;;5092798;28;19919;-41
2022/09/23 00:43:41;;;;;;;;;;;17.40;88.50;;;;;;5114273;28;19907;-41
2022/09/23 00:46:08;;;;;;;;;;;17.40;88.40;;;;;;5109996;28;19939;-41
2022/09/23 00:48:35;;;;;;;;;;;17.40;88.50;;;;;;5112779;28;19962;-41
2022/09/23 00:51:01;;;;;;;;;;;17.40;88.10;;;;;;5115644;28;19947;-41
2022/09/23 00:53:27;;;;;;;;;;;17.50;88.30;;;;;;5118706;28;19908;-41
2022/09/23 00:55:58;;;;;;;;;;;17.40;88.20;;;;;;5110442;28;19912;-41
2022/09/23 00:58:25;;;;;;;;;;;17.40;88.20;;;;;;5118464;28;20006;-41
2022/09/23 01:00:52;;;;;;;;;;;17.40;88.40;;;;;;5110617;28;20294;-41
2022/09/23 01:03:18;;;;;;;;;;;17.40;88.80;;;;;;5086267;28;19915;-41
2022/09/23 01:05:44;;;;;;;;;;;17.40;88.40;;;;;;5097712;28;19927;-41
2022/09/23 01:08:10;;;;;;;;;;;17.40;88.30;;;;;;5106126;28;19998;-43
2022/09/23 01:10:51;;;;;;;;;;;17.40;88.90;;;;;;5115977;28;19951;-41
2022/09/23 01:13:22;;;;;;;;;;;17.40;88.60;;;;;;5118060;28;19908;-41
2022/09/23 01:16:00;;;;;;;;;;;17.40;88.40;;;;;;5115972;28;20006;-41
2022/09/23 01:18:43;;;;;;;;;;;17.40;88.60;;;;;;5118249;28;19916;-41
2022/09/23 01:21:11;;;;;;;;;;;17.40;88.30;;;;;;5114817;28;20019;-41
2022/09/23 01:23:54;;;;;;;;;;;17.40;88.50;;;;;;5118213;28;19908;-41
2022/09/23 01:26:29;;;;;;;;;;;17.40;88.60;;;;;;5117104;28;19912;-41
2022/09/23 01:29:22;;;;;;;;;;;17.40;88.40;;;;;;5117693;28;19999;-41
2022/09/23 01:31:57;;;;;;;;;;;17.40;88.40;;;;;;5098062;28;20273;-41
2022/09/23 01:34:27;;;;;;;;;;;17.40;88.40;;;;;;5115493;28;19970;-40
2022/09/23 01:36:59;;;;;;;;;;;17.40;88.60;;;;;;5118286;28;20379;-41
2022/09/23 01:39:32;;;;;;;;;;;17.40;88.50;;;;;;5115467;28;19923;-41
2022/09/23 01:42:15;;;;;;;;;;;17.40;88.50;;;;;;5117692;28;19939;-41
2022/09/23 01:44:59;;;;;;;;;;;17.40;88.60;;;;;;5115236;28;19919;-42
2022/09/23 01:47:34;;;;;;;;;;;17.40;88.90;;;;;;5115487;28;19912;-42
2022/09/23 01:50:55;;;;;;;;;;;17.40;88.50;;;;;;5112710;28;19912;-41
2022/09/23 01:52:55;;;;;;;;;;;17.40;88.20;;;;;;5117004;28;20358;-41
2022/09/23 01:55:27;;;;;;;;;;;17.40;88.30;;;;;;5114124;28;20445;-41
2022/09/23 01:57:56;;;;;;;;;;;17.40;88.40;;;;;;5117392;28;20002;-41
2022/09/23 02:00:23;;;;;;;;;;;17.40;88.40;;;;;;5114459;28;19938;-40
2022/09/23 02:02:51;;;;;;;;;;;17.40;88.60;;;;;;5114940;28;19916;-41
2022/09/23 02:05:37;;;;;;;;;;;17.40;88.40;;;;;;5112004;28;19920;-41
2022/09/23 02:08:09;;;;;;;;;;;17.40;88.40;;;;;;5086656;28;20274;-41
2022/09/23 02:10:46;;;;;;;;;;;17.40;88.40;;;;;;5094221;28;19965;-41
2022/09/23 02:13:19;;;;;;;;;;;17.40;88.30;;;;;;5093281;28;20131;-41
2022/09/23 02:15:48;;;;;;;;;;;17.40;88.20;;;;;;5095280;28;19908;-41
2022/09/23 02:18:16;;;;;;;;;;;17.40;88.30;;;;;;5094856;28;19912;-41
2022/09/23 02:20:42;;;;;;;;;;;17.40;88.50;;;;;;5094818;28;19916;-43
2022/09/23 02:23:14;;;;;;;;;;;17.40;88.20;;;;;;5094772;28;19914;-41
2022/09/23 02:25:53;;;;;;;;;;;17.40;88.30;;;;;;5095081;28;19918;-41
2022/09/23 02:28:30;;;;;;;;;;;17.40;88.40;;;;;;5089436;28;20003;-41
2022/09/23 02:31:10;;;;;;;;;;;17.40;88.50;;;;;;5076607;28;20423;-42
2022/09/23 02:33:40;;;;;;;;;;;17.40;88.90;;;;;;5095134;28;19908;-41
2022/09/23 02:36:10;;;;;;;;;;;17.40;88.20;;;;;;5094604;28;19908;-42
2022/09/23 02:38:37;;;;;;;;;;;17.40;88.50;;;;;;5076656;28;19935;-40
2022/09/23 02:41:06;;;;;;;;;;;17.40;88.30;;;;;;5095376;28;20003;-42
2022/09/23 02:43:49;;;;;;;;;;;17.40;88.40;;;;;;5092565;28;19912;-41
2022/09/23 02:46:15;;;;;;;;;;;17.50;88.50;;;;;;5094561;28;20049;-42
2022/09/23 02:48:44;;;;;;;;;;;17.40;88.40;;;;;;5094659;28;19912;-41
2022/09/23 02:51:09;;;;;;;;;;;17.40;88.50;;;;;;5094489;28;19959;-41
2022/09/23 02:53:35;;;;;;;;;;;17.40;88.30;;;;;;5094629;28;20010;-42
2022/09/23 02:56:01;;;;;;;;;;;17.40;88.40;;;;;;5094489;28;19915;-41
2022/09/23 02:58:27;;;;;;;;;;;17.40;88.50;;;;;;5094156;28;19951;-41
2022/09/23 03:01:06;;;;;;;;;;;17.40;88.60;;;;;;5094488;28;19958;-41
2022/09/23 03:03:52;;;;;;;;;;;17.40;88.50;;;;;;5093850;28;19923;-42
2022/09/23 03:06:29;;;;;;;;;;;17.40;88.00;;;;;;5094166;28;20244;-43
2022/09/23 03:08:57;;;;;;;;;;;17.40;88.20;;;;;;5093922;28;20358;-41
2022/09/23 03:11:23;;;;;;;;;;;17.40;88.30;;;;;;5093689;28;19918;-41
2022/09/23 03:14:07;;;;;;;;;;;17.40;88.60;;;;;;5095232;28;19919;-41
2022/09/23 03:16:38;;;;;;;;;;;17.40;88.60;;;;;;5094668;28;20012;-42
2022/09/23 03:19:04;;;;;;;;;;;17.40;88.90;;;;;;5094400;28;19919;-41
2022/09/23 03:21:38;;;;;;;;;;;17.40;88.60;;;;;;5093716;28;19913;-43
2022/09/23 03:24:06;;;;;;;;;;;17.40;88.40;;;;;;5095373;28;19915;-41
2022/09/23 03:26:33;;;;;;;;;;;17.40;88.40;;;;;;5077380;28;20422;-41
2022/09/23 03:29:01;;;;;;;;;;;17.40;88.60;;;;;;5094977;28;20014;-41
2022/09/23 03:31:28;;;;;;;;;;;17.30;88.60;;;;;;5076972;28;19908;-41
2022/09/23 03:33:55;;;;;;;;;;;17.40;88.70;;;;;;5095016;28;19908;-41
2022/09/23 03:39:11;;;;;;;;;;;17.40;88.60;;;;;;5094919;28;20002;-41
2022/09/23 03:41:43;;;;;;;;;;;17.30;88.70;;;;;;5076762;28;20351;-41
2022/09/23 03:44:09;;;;;;;;;;;17.30;88.60;;;;;;5094780;28;19931;-41
2022/09/23 03:46:35;;;;;;;;;;;17.30;88.70;;;;;;5094592;28;19908;-41
2022/09/23 03:49:14;;;;;;;;;;;17.30;88.60;;;;;;5094561;28;20006;-41
2022/09/23 03:51:39;;;;;;;;;;;17.30;88.60;;;;;;5094593;28;19912;-41
2022/09/23 03:54:05;;;;;;;;;;;17.30;88.70;;;;;;5094346;28;19952;-41
2022/09/23 03:56:30;;;;;;;;;;;17.30;88.70;;;;;;5094410;28;19999;-41
2022/09/23 03:58:56;;;;;;;;;;;17.30;88.30;;;;;;5094444;28;19919;-41
2022/09/23 04:01:22;;;;;;;;;;;17.30;88.70;;;;;;5105580;28;19908;-41
2022/09/23 04:03:47;;;;;;;;;;;17.30;88.20;;;;;;5114984;28;19919;-41
2022/09/23 04:06:13;;;;;;;;;;;17.30;88.60;;;;;;5114626;28;20011;-41
2022/09/23 04:08:39;;;;;;;;;;;17.30;88.50;;;;;;5114910;28;20397;-41
2022/09/23 04:11:04;;;;;;;;;;;17.30;88.70;;;;;;5114760;28;19908;-41
2022/09/23 04:13:30;;;;;;;;;;;17.30;88.80;;;;;;5114982;28;20317;-41
2022/09/23 04:15:56;;;;;;;;;;;17.30;88.50;;;;;;5096741;28;19908;-41
2022/09/23 04:18:22;;;;;;;;;;;17.30;88.70;;;;;;5114383;28;19935;-42
2022/09/23 04:20:47;;;;;;;;;;;17.30;88.60;;;;;;5114693;28;19919;-42
2022/09/23 04:23:13;;;;;;;;;;;17.20;88.40;;;;;;5114134;28;19907;-41
2022/09/23 04:25:45;;;;;;;;;;;17.20;88.50;;;;;;5114189;28;19934;-41
2022/09/23 04:28:11;;;;;;;;;;;17.30;88.80;;;;;;5114615;28;20415;-41
2022/09/23 04:30:41;;;;;;;;;;;17.20;88.70;;;;;;5114532;28;19907;-41
2022/09/23 04:33:06;;;;;;;;;;;17.20;88.80;;;;;;5114569;28;19908;-42
2022/09/23 04:35:32;;;;;;;;;;;17.30;88.70;;;;;;5114705;28;19931;-42
2022/09/23 04:37:57;;;;;;;;;;;17.20;88.70;;;;;;5114251;28;19919;-41
2022/09/23 04:40:23;;;;;;;;;;;17.20;88.50;;;;;;5114030;28;19912;-42
2022/09/23 04:42:49;;;;;;;;;;;17.20;88.60;;;;;;5114101;28;19912;-42
2022/09/23 04:45:14;;;;;;;;;;;17.30;88.60;;;;;;5114690;28;20010;-44
2022/09/23 04:47:40;;;;;;;;;;;17.20;88.60;;;;;;5114396;28;19908;-42
2022/09/23 04:50:06;;;;;;;;;;;17.20;88.60;;;;;;5114255;28;19915;-41
2022/09/23 04:52:31;;;;;;;;;;;17.30;88.60;;;;;;5114411;28;20044;-41
2022/09/23 04:54:57;;;;;;;;;;;17.20;88.60;;;;;;5114168;28;20318;-42
2022/09/23 04:57:23;;;;;;;;;;;17.20;88.60;;;;;;5114198;28;19912;-42
2022/09/23 04:59:49;;;;;;;;;;;17.20;88.60;;;;;;5114068;28;19918;-42
2022/09/23 05:02:15;;;;;;;;;;;17.30;88.50;;;;;;5095616;28;19915;-44
2022/09/23 05:04:40;;;;;;;;;;;17.20;88.70;;;;;;5093825;28;20286;-42
2022/09/23 05:07:06;;;;;;;;;;;17.20;88.70;;;;;;5093326;28;20006;-42
2022/09/23 05:09:31;;;;;;;;;;;17.20;88.70;;;;;;5075506;28;20377;-41
2022/09/23 05:11:57;;;;;;;;;;;17.20;88.70;;;;;;5093518;28;19915;-42
2022/09/23 05:14:22;;;;;;;;;;;17.20;88.70;;;;;;5093690;28;19909;-42
2022/09/23 05:16:48;;;;;;;;;;;17.20;88.60;;;;;;5093515;28;19912;-42
2022/09/23 05:19:14;;;;;;;;;;;17.30;88.60;;;;;;5093577;28;19912;-42
2022/09/23 05:21:39;;;;;;;;;;;17.20;88.70;;;;;;5093408;28;20263;-41
2022/09/23 05:24:05;;;;;;;;;;;17.20;88.60;;;;;;5093157;28;19915;-42
2022/09/23 05:26:31;;;;;;;;;;;17.20;88.70;;;;;;5093266;28;19954;-42
2022/09/23 05:28:57;;;;;;;;;;;17.20;88.70;;;;;;5093487;28;19908;-42
2022/09/23 05:31:24;;;;;;;;;;;17.20;88.70;;;;;;5093288;28;19936;-42
2022/09/23 05:33:50;;;;;;;;;;;17.20;88.80;;;;;;5093248;28;19912;-42
2022/09/23 05:36:17;;;;;;;;;;;17.20;89.30;;;;;;5078212;28;19977;-43
2022/09/23 05:38:43;;;;;;;;;;;17.20;88.70;;;;;;5096921;28;19912;-42
2022/09/23 05:41:12;;;;;;;;;;;17.20;88.80;;;;;;5096963;28;19915;-42
2022/09/23 05:43:38;;;;;;;;;;;17.20;88.90;;;;;;5097093;28;19988;-42
2022/09/23 05:46:04;;;;;;;;;;;17.20;88.80;;;;;;5096687;28;19909;-42
2022/09/23 05:48:31;;;;;;;;;;;17.20;89.40;;;;;;5096698;28;19974;-42
2022/09/23 05:50:57;;;;;;;;;;;17.20;88.90;;;;;;5078700;28;20301;-42
2022/09/23 05:53:22;;;;;;;;;;;17.20;88.90;;;;;;5096475;28;19915;-42
2022/09/23 05:55:48;;;;;;;;;;;17.20;88.80;;;;;;5096309;28;19915;-42
2022/09/23 05:58:13;;;;;;;;;;;17.20;88.80;;;;;;5096435;28;19912;-42
2022/09/23 06:00:39;;;;;;;;;;;17.20;88.80;;;;;;5101409;28;19922;-42
2022/09/23 06:03:05;;;;;;;;;;;17.20;88.80;;;;;;5116989;28;20010;-42
2022/09/23 06:05:31;;;;;;;;;;;17.10;89.00;;;;;;5116589;28;19963;-42
2022/09/23 06:07:57;;;;;;;;;;;17.10;89.00;;;;;;5116899;28;19915;-42
2022/09/23 06:10:22;;;;;;;;;;;17.10;89.00;;;;;;5098606;28;19908;-42
2022/09/23 06:12:48;;;;;;;;;;;17.10;89.10;;;;;;5102434;28;20236;-43
2022/09/23 06:15:14;;;;;;;;;;;17.10;89.10;;;;;;5096151;28;19947;-42
2022/09/23 06:17:39;;;;;;;;;;;17.10;89.10;;;;;;5095467;28;19978;-42
2022/09/23 06:20:05;;;;;;;;;;;17.10;89.20;;;;;;5095845;28;19916;-46
2022/09/23 06:22:31;;;;;;;;;;;17.10;89.20;;;;;;5095820;28;19912;-42
2022/09/23 06:24:56;;;;;;;;;;;17.10;89.30;;;;;;5098259;28;19919;-42
2022/09/23 06:27:22;;;;;;;;;;;17.10;89.20;;;;;;5100359;28;19919;-41
2022/09/23 06:29:51;;;;;;;;;;;17.10;89.50;;;;;;5095983;28;19962;-41
2022/09/23 06:32:17;;;;;;;;;;;17.10;89.70;;;;;;5106599;28;19986;-41
2022/09/23 06:34:44;;;;;;;;;;;17.10;89.90;;;;;;5107127;28;20330;-41
2022/09/23 06:37:10;;;;;;;;;;;17.10;89.80;;;;;;5110556;28;19977;-42
2022/09/23 06:39:35;;;;;;;;;;;17.10;89.70;;;;;;5109585;28;19916;-43
2022/09/23 06:42:01;;;;;;;;;;;17.10;89.60;;;;;;5105335;28;19927;-42
2022/09/23 06:44:27;;;;;;;;;;;17.10;89.60;;;;;;5095279;28;19918;-42
2022/09/23 06:46:52;;;;;;;;;;;17.20;89.60;;;;;;5091154;28;19918;-42
2022/09/23 06:49:20;;;;;;;;;;;17.10;89.60;;;;;;5095361;28;20285;-42
2022/09/23 06:51:45;;;;;;;;;;;17.10;89.40;;;;;;5095995;28;19912;-40
2022/09/23 06:54:12;;;;;;;;;;;17.20;89.40;;;;;;5085653;28;19920;-42
2022/09/23 06:56:37;;;;;;;;;;;17.20;89.70;;;;;;5094065;28;19919;-41
2022/09/23 06:59:03;;;;;;;;;;;17.20;89.80;;;;;;5103408;28;20406;-41
2022/09/23 07:01:28;;;;;;;;;;;17.10;89.90;;;;;;5104462;28;20385;-41
2022/09/23 07:03:54;;;;;;;;;;;17.10;89.90;;;;;;5097372;28;20022;-43
2022/09/23 07:06:20;;;;;;;;;;;17.20;89.90;;;;;;5103441;28;20262;-42
2022/09/23 07:08:49;;;;;;;;;;;17.20;90.00;;;;;;5101946;28;20304;-42
2022/09/23 07:11:18;;;;;;;;;;;17.10;90.00;;;;;;5111946;28;19995;-49
2022/09/23 07:13:43;;;;;;;;;;;17.20;90.00;;;;;;5111169;28;19908;-50
2022/09/23 07:16:09;;;;;;;;;;;17.20;90.00;;;;;;5094589;28;19911;-55
2022/09/23 07:18:36;;;;;;;;;;;17.20;90.00;;;;;;5106066;28;20368;-55
2022/09/23 07:21:19;;;;;;;;;;;17.20;90.00;;;;;;5103188;28;19920;-53
2022/09/23 07:23:46;;;;;;;;;;;17.20;90.00;;;;;;5088877;28;19915;-54
2022/09/23 07:26:11;;;;;;;;;;;17.20;89.90;;;;;;5079606;28;19916;-53
2022/09/23 07:28:37;;;;;;;;;;;17.20;90.00;;;;;;5109812;28;20231;-52
2022/09/23 07:31:04;;;;;;;;;;;17.20;90.00;;;;;;5103635;28;19912;-53
2022/09/23 07:33:30;;;;;;;;;;;17.20;89.90;;;;;;5103312;28;19972;-54
2022/09/23 07:35:56;;;;;;;;;;;17.20;89.90;;;;;;5108904;28;19917;-54
2022/09/23 07:38:24;;;;;;;;;;;17.20;90.00;;;;;;5104326;28;19918;-51
2022/09/23 07:40:50;;;;;;;;;;;17.20;90.00;;;;;;5103415;28;19951;-55
2022/09/23 07:43:17;;;;;;;;;;;17.20;90.00;;;;;;5110633;28;19908;-52
2022/09/23 07:45:44;;;;;;;;;;;17.30;90.00;;;;;;5093287;28;19908;-51
2022/09/23 07:48:09;;;;;;;;;;;17.30;90.00;;;;;;5104577;28;19916;-52
2022/09/23 07:50:37;;;;;;;;;;;17.30;90.00;;;;;;5109983;28;20418;-51
2022/09/23 07:53:03;;;;;;;;;;;17.30;90.00;;;;;;5102013;28;19951;-51
2022/09/23 07:55:29;;;;;;;;;;;17.30;90.00;;;;;;5066778;28;19995;-50
2022/09/23 07:57:54;;;;;;;;;;;17.30;90.10;;;;;;5104574;28;20422;-51
2022/09/23 08:00:20;;;;;;;;;;;17.30;90.00;;;;;;5112255;28;19919;-52
2022/09/23 08:02:45;;;;;;;;;;;17.30;90.00;;;;;;5101856;28;19912;-55
2022/09/23 08:05:11;;;;;;;;;;;17.30;90.00;;;;;;5105666;28;19916;-49
2022/09/23 08:07:36;;;;;;;;;;;17.30;90.10;;;;;;5105436;28;19915;-55
2022/09/23 08:10:02;;;;;;;;;;;17.30;90.00;;;;;;5097188;28;19907;-53
2022/09/23 08:12:30;;;;;;;;;;;17.30;90.10;;;;;;5103084;28;19907;-47
2022/09/23 08:14:56;;;;;;;;;;;17.30;90.10;;;;;;5106539;28;19912;-51
2022/09/23 08:17:22;;;;;;;;;;;17.30;90.00;;;;;;5114521;28;19908;-48
2022/09/23 08:19:47;;;;;;;;;;;17.30;90.10;;;;;;5112006;28;20350;-48
2022/09/23 08:22:12;;;;;;;;;;;17.20;90.10;;;;;;5114366;28;20249;-53
2022/09/23 08:24:38;;;;;;;;;;;17.30;90.00;;;;;;5097256;28;19990;-52
2022/09/23 08:27:03;;;;;;;;;;;17.30;90.00;;;;;;5077048;28;19908;-51
2022/09/23 08:29:29;;;;;;;;;;;17.30;90.10;;;;;;5092203;28;19972;-51
2022/09/23 08:31:54;;;;;;;;;;;17.30;90.10;;;;;;5106710;28;20345;-53
2022/09/23 08:34:21;;;;;;;;;;;17.20;90.00;;;;;;5114525;28;19949;-50
2022/09/23 08:36:47;;;;;;;;;;;17.30;90.10;;;;;;5108802;28;19999;-51
2022/09/23 08:39:14;;;;;;;;;;;17.30;90.20;;;;;;5111788;28;20289;-53
2022/09/23 08:41:43;;;;;;;;;;;17.20;90.20;;;;;;5069331;28;19999;-54
2022/09/23 08:44:08;;;;;;;;;;;17.30;90.10;;;;;;5081621;28;19908;-49
2022/09/23 08:46:36;;;;;;;;;;;17.30;90.20;;;;;;5107504;28;20022;-53
2022/09/23 08:49:03;;;;;;;;;;;17.20;90.20;;;;;;5101654;28;19915;-53
2022/09/23 08:51:32;;;;;;;;;;;17.30;90.20;;;;;;5087477;28;19919;-51
2022/09/23 08:53:58;;;;;;;;;;;17.30;90.20;;;;;;5095930;28;20245;-51
2022/09/23 08:56:23;;;;;;;;;;;17.30;90.10;;;;;;5113769;28;19910;-51
2022/09/23 08:58:52;;;;;;;;;;;17.40;89.80;;;;;;5106328;28;19919;-52
2022/09/23 09:01:36;;;;;;;;;;;17.50;89.60;;;;;;5093828;28;19911;-48
2022/09/23 09:04:07;;;;;;;;;;;17.60;89.50;;;;;;5094609;28;19916;-51
2022/09/23 09:06:36;;;;;;;;;;;17.70;89.20;;;;;;5104559;28;20057;-50
2022/09/23 09:09:03;;;;;;;;;;;17.90;88.90;;;;;;5079841;28;19916;-50
2022/09/23 09:11:34;;;;;;;;;;;18.20;88.50;;;;;;5105193;28;19977;-53
2022/09/23 09:14:04;;;;;;;;;;;18.40;87.80;;;;;;5116679;28;19911;-49
2022/09/23 09:16:38;;;;;;;;;;;18.70;87.00;;;;;;5109566;28;20354;-51
2022/09/23 09:19:05;;;;;;;;;;;19.00;86.20;;;;;;5107397;28;19938;-51
2022/09/23 09:21:33;;;;;;;;;;;19.20;85.30;;;;;;5097756;28;19904;-50
2022/09/23 09:24:01;;;;;;;;;;;19.40;84.60;;;;;;5082258;28;20403;-50
2022/09/23 09:26:27;;;;;;;;;;;19.60;84.20;;;;;;5105494;28;20273;-49
2022/09/23 09:28:58;;;;;;;;;;;19.80;83.80;;;;;;5117930;28;20434;-51
2022/09/23 09:31:41;;;;;;;;;;;19.80;83.60;;;;;;5117626;28;19995;-50
2022/09/23 09:34:25;;;;;;;;;;;19.80;83.50;;;;;;5059265;28;20295;-48
2022/09/23 09:37:05;;;;;;;;;;;19.90;83.40;;;;;;5094319;28;19918;-51
2022/09/23 09:39:32;;;;;;;;;;;19.90;83.30;;;;;;5116853;28;19911;-50
2022/09/23 09:41:59;;;;;;;;;;;19.80;83.40;;;;;;5075945;28;20373;-51
2022/09/23 09:44:34;;;;;;;;;;;19.80;83.50;;;;;;5106638;28;19908;-51
2022/09/23 09:47:18;;;;;;;;;;;19.80;83.60;;;;;;5107893;28;19916;-52
2022/09/23 09:49:44;;;;;;;;;;;19.70;83.70;;;;;;5109596;28;19954;-50
2022/09/23 09:52:11;;;;;;;;;;;19.60;83.90;;;;;;5105701;28;19948;-53
2022/09/23 09:54:37;;;;;;;;;;;19.60;84.10;;;;;;5101678;28;20344;-52
2022/09/23 09:57:03;;;;;;;;;;;19.50;84.30;;;;;;5116929;28;19907;-50
2022/09/23 09:59:29;;;;;;;;;;;19.40;84.50;;;;;;5116855;28;20100;-48
2022/09/23 10:02:13;;;;;;;;;;;19.40;84.80;;;;;;5083237;28;19954;-51
2022/09/23 10:04:40;;;;;;;;;;;19.30;84.90;;;;;;5100176;28;19922;-49
2022/09/23 10:07:05;;;;;;;;;;;19.20;85.00;;;;;;5103648;28;19912;-51
2022/09/23 10:09:33;;;;;;;;;;;19.30;85.10;;;;;;5098025;28;19931;-52
2022/09/23 10:12:17;;;;;;;;;;;19.30;85.00;;;;;;5107635;28;20334;-50
2022/09/23 10:14:49;;;;;;;;;;;19.40;85.00;;;;;;5085762;28;19908;-50
2022/09/23 10:17:41;;;;;;;;;;;19.50;84.70;;;;;;5096487;28;19908;-51
2022/09/23 10:20:07;;;;;;;;;;;19.60;84.40;;;;;;5096236;28;20388;-54
2022/09/23 10:22:35;;;;;;;;;;;19.80;84.00;;;;;;5085374;28;20014;-52
2022/09/23 10:25:08;;;;;;;;;;;19.80;83.70;;;;;;5104229;28;19916;-51
2022/09/23 10:27:35;;;;;;;;;;;19.90;83.50;;;;;;5095281;28;20247;-52
2022/09/23 10:30:23;;;;;;;;;;;20.00;83.30;;;;;;5095901;28;19908;-48
2022/09/23 10:32:49;;;;;;;;;;;20.00;83.20;;;;;;5078082;28;20320;-50
2022/09/23 10:35:20;;;;;;;;;;;20.00;83.20;;;;;;5096127;28;19908;-47
2022/09/23 10:37:53;;;;;;;;;;;20.00;83.20;;;;;;5088399;28;19917;-50
2022/09/23 10:49:12;;;;;;;;;;;19.60;83.90;;;;;;5111660;28;20007;-49
2022/09/23 10:51:42;;;;;;;;;;;19.50;84.10;;;;;;5101237;28;19919;-49
2022/09/23 10:54:26;;;;;;;;;;;19.50;84.20;;;;;;5112259;28;19908;-48
2022/09/23 10:56:57;;;;;;;;;;;19.50;84.10;;;;;;5104907;28;20278;-48
2022/09/23 10:59:42;;;;;;;;;;;19.60;84.10;;;;;;5092972;28;19966;-55
2022/09/23 11:02:20;;;;;;;;;;;19.60;83.80;;;;;;5093188;28;19965;-44
2022/09/23 11:04:51;;;;;;;;;;;19.70;83.70;;;;;;5096314;28;19966;-51
2022/09/23 11:07:26;;;;;;;;;;;19.80;83.20;;;;;;5091653;28;20003;-52
2022/09/23 11:09:51;;;;;;;;;;;20.00;83.00;;;;;;5107970;28;19907;-53
2022/09/23 11:12:26;;;;;;;;;;;20.10;82.70;;;;;;5111928;28;19957;-52
2022/09/23 11:15:00;;;;;;;;;;;20.10;82.60;;;;;;5088080;28;19957;-53
2022/09/23 11:17:41;;;;;;;;;;;20.20;82.60;;;;;;5092772;28;19916;-50
2022/09/23 11:20:20;;;;;;;;;;;20.20;82.60;;;;;;5093392;28;19948;-52
2022/09/23 11:23:06;;;;;;;;;;;20.20;82.60;;;;;;5096996;28;20003;-48
2022/09/23 11:25:37;;;;;;;;;;;20.10;82.80;;;;;;5102505;28;19911;-52
2022/09/23 11:28:05;;;;;;;;;;;20.00;82.90;;;;;;5076612;28;20405;-50
2022/09/23 11:30:41;;;;;;;;;;;20.00;83.10;;;;;;5094383;28;20369;-47
2022/09/23 11:33:18;;;;;;;;;;;20.00;83.30;;;;;;5093943;28;19996;-48
2022/09/23 11:35:54;;;;;;;;;;;19.90;83.50;;;;;;5090532;28;19929;-52
2022/09/23 11:38:24;;;;;;;;;;;19.80;83.70;;;;;;5077523;28;20253;-50
2022/09/23 11:41:02;;;;;;;;;;;19.80;83.80;;;;;;5104584;28;19915;-48
2022/09/23 11:43:33;;;;;;;;;;;19.80;83.90;;;;;;5092686;28;19972;-50
2022/09/23 11:45:58;;;;;;;;;;;19.80;83.90;;;;;;5077763;28;20259;-51
2022/09/23 11:48:35;;;;;;;;;;;19.80;83.90;;;;;;5094445;28;19908;-49
2022/09/23 11:51:08;;;;;;;;;;;19.90;83.80;;;;;;5097351;28;19908;-53
2022/09/23 11:53:56;;;;;;;;;;;19.90;83.70;;;;;;5115472;28;19911;-48
2022/09/23 11:56:26;;;;;;;;;;;19.90;83.60;;;;;;5114620;28;20003;-53
2022/09/23 11:58:55;;;;;;;;;;;20.00;83.60;;;;;;5107180;28;19916;-51
2022/09/23 12:01:37;;;;;;;;;;;20.00;83.50;;;;;;5103932;28;19908;-48
2022/09/23 12:04:03;;;;;;;;;;;20.00;83.40;;;;;;5113965;28;19922;-50
2022/09/23 12:06:32;;;;;;;;;;;20.10;83.40;;;;;;5093388;28;20866;-51
2022/09/23 12:09:02;;;;;;;;;;;20.10;83.30;;;;;;5094120;28;19904;-50
2022/09/23 12:11:30;;;;;;;;;;;20.10;83.40;;;;;;5094146;28;19935;-50
2022/09/23 12:13:59;;;;;;;;;;;20.10;83.50;;;;;;5075679;28;19987;-50
2022/09/23 12:16:27;;;;;;;;;;;20.00;83.50;;;;;;5094167;28;19908;-48
2022/09/23 12:19:15;;;;;;;;;;;20.00;83.60;;;;;;5116581;27;20230;-52
2022/09/23 12:21:48;;;;;;;;;;;20.00;83.70;;;;;;5092442;28;19943;-51
2022/09/23 12:24:23;;;;;;;;;;;20.00;83.80;;;;;;5084121;28;19957;-53
2022/09/23 12:26:50;;;;;;;;;;;19.90;83.90;;;;;;5073476;28;19904;-49
2022/09/23 12:29:16;;;;;;;;;;;19.90;84.00;;;;;;5095675;28;19931;-53
2022/09/23 12:31:43;;;;;;;;;;;19.90;84.10;;;;;;5114171;28;20334;-50
2022/09/23 12:34:20;;;;;;;;;;;19.90;84.20;;;;;;5096695;28;19962;-51
2022/09/23 12:36:46;;;;;;;;;;;19.90;84.20;;;;;;5081066;28;19908;-52
2022/09/23 12:39:14;;;;;;;;;;;19.90;84.10;;;;;;5109398;28;19998;-53
2022/09/23 12:41:41;;;;;;;;;;;19.90;84.00;;;;;;5108782;28;19920;-53
2022/09/23 12:44:07;;;;;;;;;;;20.00;84.00;;;;;;5101002;28;19912;-55
2022/09/23 12:46:32;;;;;;;;;;;20.00;83.90;;;;;;5089074;28;19915;-51
2022/09/23 12:48:59;;;;;;;;;;;20.00;83.90;;;;;;5099252;28;20283;-59
2022/09/23 12:51:30;;;;;;;;;;;20.10;83.90;;;;;;5105578;28;19912;-50
2022/09/23 12:54:02;;;;;;;;;;;20.10;83.70;;;;;;5093757;28;19915;-53
2022/09/23 12:56:36;;;;;;;;;;;20.20;83.60;;;;;;5106164;28;20261;-53
2022/09/23 12:59:04;;;;;;;;;;;20.20;83.50;;;;;;5109428;28;19916;-54
2022/09/23 13:01:35;;;;;;;;;;;20.20;83.50;;;;;;5107219;28;19919;-55
2022/09/23 13:06:51;;;;;;;;;;;20.20;83.60;;;;;;5110797;28;20361;-50
2022/09/23 13:09:21;;;;;;;;;;;20.10;83.60;;;;;;5099312;28;19911;-52
2022/09/23 13:11:47;;;;;;;;;;;20.10;83.70;;;;;;5113563;28;19904;-49
2022/09/23 13:14:15;;;;;;;;;;;20.10;83.90;;;;;;5081534;28;19907;-50
2022/09/23 13:16:45;;;;;;;;;;;20.00;83.90;;;;;;5098881;28;19908;-53
2022/09/23 13:19:25;;;;;;;;;;;20.00;84.00;;;;;;5109512;28;20351;-51
2022/09/23 13:22:07;;;;;;;;;;;20.00;84.00;;;;;;5111043;28;19946;-50
2022/09/23 13:24:35;;;;;;;;;;;20.00;84.10;;;;;;5101246;28;19908;-49
2022/09/23 13:27:01;;;;;;;;;;;20.00;84.10;;;;;;5082608;28;19908;-52
2022/09/23 13:29:36;;;;;;;;;;;20.00;83.90;;;;;;5090308;28;20347;-57
2022/09/23 13:32:02;;;;;;;;;;;20.00;83.90;;;;;;5095934;28;20435;-55
2022/09/23 13:34:31;;;;;;;;;;;20.10;84.00;;;;;;5106377;28;19959;-56
2022/09/23 13:36:57;;;;;;;;;;;20.10;83.90;;;;;;5112265;28;19978;-55
2022/09/23 13:39:24;;;;;;;;;;;20.10;83.90;;;;;;5100263;28;20000;-50
2022/09/23 13:41:51;;;;;;;;;;;20.10;83.90;;;;;;5096868;28;19927;-47
2022/09/23 13:44:18;;;;;;;;;;;20.10;83.90;;;;;;5113251;28;20002;-51
2022/09/23 13:46:49;;;;;;;;;;;20.20;83.90;;;;;;5105681;28;19918;-50
2022/09/23 13:49:23;;;;;;;;;;;20.20;83.70;;;;;;5091542;28;19956;-52
2022/09/23 13:51:49;;;;;;;;;;;20.20;83.60;;;;;;5076485;28;20371;-53
2022/09/23 13:54:27;;;;;;;;;;;20.20;83.70;;;;;;5080394;28;20367;-50
2022/09/23 13:56:53;;;;;;;;;;;20.10;83.70;;;;;;5080962;28;19915;-47
2022/09/23 13:59:40;;;;;;;;;;;20.10;83.70;;;;;;5112895;28;19994;-50
2022/09/23 14:02:10;;;;;;;;;;;20.00;83.70;;;;;;5091848;28;19916;-51
2022/09/23 14:04:35;;;;;;;;;;;20.00;83.90;;;;;;5099030;28;20428;-49
2022/09/23 14:07:01;;;;;;;;;;;19.90;83.90;;;;;;5110620;28;19912;-48
2022/09/23 14:09:27;;;;;;;;;;;20.00;83.80;;;;;;5101478;28;19974;-50
2022/09/23 14:11:55;;;;;;;;;;;20.00;83.80;;;;;;5093965;28;19912;-52
2022/09/23 14:14:22;;;;;;;;;;;20.00;83.70;;;;;;5093851;28;19911;-49
2022/09/23 14:16:48;;;;;;;;;;;20.00;83.70;;;;;;5116470;28;20410;-47
2022/09/23 14:19:18;;;;;;;;;;;20.10;83.30;;;;;;5082299;28;19916;-50
2022/09/23 14:21:46;;;;;;;;;;;20.30;83.00;;;;;;5096283;28;20010;-49
2022/09/23 14:24:17;;;;;;;;;;;20.40;82.70;;;;;;5105648;28;19923;-49
2022/09/23 14:26:45;;;;;;;;;;;20.50;82.50;;;;;;5093704;28;20357;-45
2022/09/23 14:29:15;;;;;;;;;;;20.50;82.40;;;;;;5111188;28;20278;-46
2022/09/23 14:31:43;;;;;;;;;;;20.50;82.40;;;;;;5112875;28;19962;-47
2022/09/23 14:34:31;;;;;;;;;;;20.50;82.40;;;;;;5109420;28;20020;-49
2022/09/23 14:39:40;;;;;;;;;;;20.40;82.50;;;;;;5102644;28;19968;-46
2022/09/23 14:42:06;;;;;;;;;;;20.40;82.70;;;;;;5112022;28;19907;-46
2022/09/23 14:44:34;;;;;;;;;;;20.30;82.90;;;;;;5102749;28;19919;-45
2022/09/23 14:46:59;;;;;;;;;;;20.20;83.20;;;;;;5111207;28;19916;-45